Time;durP1;ratioP1;P1;durP2;ratioP2;P2;SDS_P1;SDS_P2;PMS_P1;PMS_P2;Temp;Humidity;BMP_temperature;BMP_pressure;BME280_temperature;BME280_humidity;BME280_pressure;Samples;Min_cycle;Max_cycle;Signal;HPM_P1;HPM_P2
2021/12/26 00:00:45;;;;;;;5.82;4.93;;;;;;;;;;5019876;28;20053;-56
2021/12/26 00:03:11;;;;;;;8.53;5.20;;;;;;;;;;5027878;28;20513;-57
2021/12/26 00:05:38;;;;;;;7.72;5.38;;;;;;;;;;5019683;28;20071;-57
2021/12/26 00:08:04;;;;;;;10.20;4.85;;;;;;;;;;5025767;28;20053;-57
2021/12/26 00:10:30;;;;;;;7.15;4.78;;;;;;;;;;5026202;28;20029;-58
2021/12/26 00:12:57;;;;;;;8.13;4.18;;;;;;;;;;5019120;28;20025;-57
2021/12/26 00:15:23;;;;;;;6.40;4.40;;;;;;;;;;5018654;28;20060;-57
2021/12/26 00:17:49;;;;;;;5.60;3.95;;;;;;;;;;5022664;28;20069;-58
2021/12/26 00:20:16;;;;;;;12.05;5.15;;;;;;;;;;5021287;28;20050;-57
2021/12/26 00:22:42;;;;;;;8.98;4.47;;;;;;;;;;5023273;28;20036;-55
2021/12/26 00:25:10;;;;;;;6.18;4.90;;;;;;;;;;5026749;28;20040;-57
2021/12/26 00:27:37;;;;;;;6.15;4.38;;;;;;;;;;5022736;28;20514;-56
2021/12/26 00:30:11;;;;;;;7.95;5.18;;;;;;;;;;5020164;28;20363;-55
2021/12/26 00:32:38;;;;;;;4.35;3.78;;;;;;;;;;5021865;28;20057;-56
2021/12/26 00:35:05;;;;;;;5.93;4.28;;;;;;;;;;5023456;28;20037;-54
2021/12/26 00:37:30;;;;;;;5.18;4.68;;;;;;;;;;5026237;28;20022;-54
2021/12/26 00:39:56;;;;;;;5.68;4.38;;;;;;;;;;5020265;28;20041;-54
2021/12/26 00:42:23;;;;;;;7.78;4.90;;;;;;;;;;5024346;28;20029;-56
2021/12/26 00:44:49;;;;;;;6.55;4.22;;;;;;;;;;5026610;28;20039;-55
2021/12/26 00:47:15;;;;;;;5.80;4.50;;;;;;;;;;5021994;28;20037;-54
2021/12/26 00:49:41;;;;;;;5.40;4.43;;;;;;;;;;5019879;28;20067;-57
2021/12/26 00:52:07;;;;;;;7.00;4.40;;;;;;;;;;5021183;28;20025;-55
2021/12/26 00:54:34;;;;;;;8.18;4.32;;;;;;;;;;5021760;28;20474;-56
2021/12/26 00:57:00;;;;;;;5.18;4.00;;;;;;;;;;5025593;28;20123;-57
2021/12/26 00:59:26;;;;;;;8.40;4.32;;;;;;;;;;5020993;28;20044;-54
2021/12/26 01:01:53;;;;;;;7.57;4.97;;;;;;;;;;5022442;28;20024;-54
2021/12/26 01:04:20;;;;;;;5.13;4.40;;;;;;;;;;5026374;28;20040;-53
2021/12/26 01:06:46;;;;;;;10.15;5.05;;;;;;;;;;5019366;28;20047;-52
2021/12/26 01:09:16;;;;;;;7.28;5.20;;;;;;;;;;5020617;28;20038;-55
2021/12/26 01:11:48;;;;;;;9.25;4.68;;;;;;;;;;5022295;28;20029;-54
2021/12/26 01:14:16;;;;;;;6.60;4.85;;;;;;;;;;5022740;28;20043;-53
2021/12/26 01:16:44;;;;;;;6.38;4.50;;;;;;;;;;5023094;28;20030;-55
2021/12/26 01:19:14;;;;;;;6.22;4.80;;;;;;;;;;5026718;28;20033;-54
2021/12/26 01:21:42;;;;;;;9.38;4.43;;;;;;;;;;5026270;28;20030;-53
2021/12/26 01:24:12;;;;;;;11.18;4.63;;;;;;;;;;5025658;28;20033;-56
2021/12/26 01:26:38;;;;;;;5.53;4.15;;;;;;;;;;5027329;28;20037;-57
2021/12/26 01:29:05;;;;;;;9.32;4.60;;;;;;;;;;5021036;28;20029;-57
2021/12/26 01:31:32;;;;;;;6.80;4.53;;;;;;;;;;5029369;28;20072;-54
2021/12/26 01:34:04;;;;;;;9.13;5.60;;;;;;;;;;5029644;28;21310;-54
2021/12/26 01:36:31;;;;;;;8.55;4.45;;;;;;;;;;5025383;28;20380;-56
2021/12/26 01:38:59;;;;;;;15.20;6.75;;;;;;;;;;5021269;28;20030;-55
2021/12/26 01:41:25;;;;;;;8.52;4.50;;;;;;;;;;5025247;28;20038;-56
2021/12/26 01:43:56;;;;;;;7.07;4.68;;;;;;;;;;5021360;28;20029;-56
2021/12/26 01:46:24;;;;;;;5.13;3.90;;;;;;;;;;5023122;28;20075;-57
2021/12/26 01:49:12;;;;;;;6.35;4.32;;;;;;;;;;5026549;28;20039;-55
2021/12/26 01:51:40;;;;;;;6.53;5.78;;;;;;;;;;5026311;28;20029;-54
2021/12/26 01:54:09;;;;;;;9.98;5.78;;;;;;;;;;5021117;28;20103;-55
2021/12/26 01:56:37;;;;;;;6.43;5.60;;;;;;;;;;5028164;28;20017;-57
2021/12/26 01:59:05;;;;;;;7.82;6.15;;;;;;;;;;5024971;28;20087;-55
2021/12/26 02:01:31;;;;;;;9.45;6.45;;;;;;;;;;5022745;28;20045;-56
2021/12/26 02:03:57;;;;;;;9.07;6.43;;;;;;;;;;5019137;28;20036;-56
2021/12/26 02:06:22;;;;;;;8.48;6.47;;;;;;;;;;5029916;28;20030;-54
2021/12/26 02:08:49;;;;;;;9.73;5.88;;;;;;;;;;5023822;28;20067;-56
2021/12/26 02:11:16;;;;;;;7.20;5.90;;;;;;;;;;5027719;28;20413;-50
2021/12/26 02:13:43;;;;;;;9.00;5.50;;;;;;;;;;5023067;28;20048;-53
2021/12/26 02:16:10;;;;;;;6.65;5.05;;;;;;;;;;5020932;28;20064;-56
2021/12/26 02:18:36;;;;;;;8.98;5.03;;;;;;;;;;5023565;28;20046;-54
2021/12/26 02:24:04;;;;;;;8.15;5.20;;;;;;;;;;5023653;28;20030;-54
2021/12/26 02:29:14;;;;;;;5.85;4.50;;;;;;;;;;5021898;28;20065;-55
2021/12/26 02:31:40;;;;;;;9.57;4.32;;;;;;;;;;5027334;28;20107;-56
2021/12/26 02:34:05;;;;;;;4.70;4.15;;;;;;;;;;5019951;28;20490;-53
2021/12/26 02:36:31;;;;;;;7.78;4.85;;;;;;;;;;5020965;28;20033;-55
2021/12/26 02:38:58;;;;;;;8.30;5.00;;;;;;;;;;5024559;28;20025;-54
2021/12/26 02:41:24;;;;;;;10.80;5.43;;;;;;;;;;5023231;28;20033;-54
2021/12/26 02:43:49;;;;;;;5.75;4.53;;;;;;;;;;5022808;28;20033;-56
2021/12/26 02:46:15;;;;;;;10.43;5.10;;;;;;;;;;5022246;28;20040;-52
2021/12/26 02:48:41;;;;;;;7.85;4.68;;;;;;;;;;5029570;28;20048;-56
2021/12/26 02:51:07;;;;;;;9.20;5.20;;;;;;;;;;5024793;28;20479;-53
2021/12/26 02:53:34;;;;;;;8.68;4.43;;;;;;;;;;5018838;28;20045;-56
2021/12/26 02:56:01;;;;;;;7.25;4.55;;;;;;;;;;5022858;28;20508;-55
2021/12/26 02:58:27;;;;;;;8.68;5.20;;;;;;;;;;5024303;28;20021;-57
2021/12/26 03:01:00;;;;;;;10.43;4.75;;;;;;;;;;5019690;28;20103;-55
2021/12/26 03:03:26;;;;;;;10.68;5.07;;;;;;;;;;5020747;28;20068;-55
2021/12/26 03:06:07;;;;;;;8.25;4.50;;;;;;;;;;5026026;28;20037;-56
2021/12/26 03:08:32;;;;;;;7.38;4.55;;;;;;;;;;5024181;28;20022;-56
2021/12/26 03:10:59;;;;;;;11.48;5.07;;;;;;;;;;5026604;28;20033;-56
2021/12/26 03:13:26;;;;;;;6.85;4.40;;;;;;;;;;5022468;28;20030;-53
2021/12/26 03:15:52;;;;;;;5.90;4.28;;;;;;;;;;5024100;28;20065;-55
2021/12/26 03:18:18;;;;;;;12.10;4.65;;;;;;;;;;5023794;28;20119;-56
2021/12/26 03:20:46;;;;;;;5.68;4.22;;;;;;;;;;5025574;28;20040;-56
2021/12/26 03:23:14;;;;;;;7.93;4.70;;;;;;;;;;5026059;28;20038;-55
2021/12/26 03:25:40;;;;;;;9.82;4.30;;;;;;;;;;5024828;28;20044;-55
2021/12/26 03:28:07;;;;;;;8.60;4.15;;;;;;;;;;5025789;28;20061;-55
2021/12/26 03:30:34;;;;;;;6.35;4.05;;;;;;;;;;5024887;28;20710;-55
2021/12/26 03:33:02;;;;;;;9.77;4.30;;;;;;;;;;5021010;28;20100;-54
2021/12/26 03:35:29;;;;;;;7.00;4.93;;;;;;;;;;5025555;28;20491;-56
2021/12/26 03:37:56;;;;;;;6.60;4.15;;;;;;;;;;5026295;28;20112;-55
2021/12/26 03:40:21;;;;;;;8.18;3.97;;;;;;;;;;5022742;28;20083;-53
2021/12/26 03:42:51;;;;;;;7.18;4.22;;;;;;;;;;5025446;28;20422;-54
2021/12/26 03:45:16;;;;;;;4.07;3.75;;;;;;;;;;5021262;28;20057;-57
2021/12/26 03:47:42;;;;;;;4.43;3.90;;;;;;;;;;5022316;28;20072;-55
2021/12/26 03:50:08;;;;;;;5.90;4.45;;;;;;;;;;5018674;28;20036;-55
2021/12/26 03:52:34;;;;;;;5.47;4.00;;;;;;;;;;5020498;28;20033;-56
2021/12/26 03:55:00;;;;;;;8.55;4.68;;;;;;;;;;5021554;28;20036;-54
2021/12/26 03:57:26;;;;;;;5.70;3.80;;;;;;;;;;5024929;28;20029;-53
2021/12/26 03:59:52;;;;;;;6.57;3.80;;;;;;;;;;5020319;28;20038;-55
2021/12/26 04:02:18;;;;;;;6.38;4.53;;;;;;;;;;5019161;28;20072;-56
2021/12/26 04:04:45;;;;;;;5.88;4.13;;;;;;;;;;5021705;28;20026;-54
2021/12/26 04:07:11;;;;;;;4.82;4.15;;;;;;;;;;5018461;28;20117;-55
2021/12/26 04:09:37;;;;;;;6.20;4.47;;;;;;;;;;5023205;28;20116;-53
2021/12/26 04:12:03;;;;;;;5.65;3.78;;;;;;;;;;5017910;28;20537;-56
2021/12/26 04:14:29;;;;;;;5.75;3.72;;;;;;;;;;5027085;28;20356;-54
2021/12/26 04:16:54;;;;;;;8.93;3.88;;;;;;;;;;5020030;28;20063;-56
2021/12/26 04:19:20;;;;;;;14.50;5.25;;;;;;;;;;5020564;28;20050;-55
2021/12/26 04:21:46;;;;;;;5.40;3.65;;;;;;;;;;5020087;28;20037;-55
2021/12/26 04:24:12;;;;;;;8.10;4.20;;;;;;;;;;5027227;28;20048;-53
2021/12/26 04:26:39;;;;;;;5.18;3.40;;;;;;;;;;5025329;28;20050;-53
2021/12/26 04:29:06;;;;;;;6.50;3.33;;;;;;;;;;5026353;28;20136;-54
2021/12/26 04:31:32;;;;;;;7.07;3.58;;;;;;;;;;5023708;28;20420;-54
2021/12/26 04:33:58;;;;;;;4.25;3.08;;;;;;;;;;5024978;28;20041;-55
2021/12/26 04:36:23;;;;;;;3.78;3.08;;;;;;;;;;5024026;28;20091;-56
2021/12/26 04:38:49;;;;;;;7.78;4.00;;;;;;;;;;5016879;28;20084;-55
2021/12/26 04:41:15;;;;;;;5.32;2.95;;;;;;;;;;5020335;28;20041;-55
2021/12/26 04:43:41;;;;;;;11.20;3.70;;;;;;;;;;5027296;28;20386;-54
2021/12/26 04:46:08;;;;;;;4.88;3.45;;;;;;;;;;5020956;28;20104;-56
2021/12/26 04:48:36;;;;;;;4.70;3.17;;;;;;;;;;5035251;28;20038;-56
2021/12/26 04:51:03;;;;;;;3.85;3.45;;;;;;;;;;5023490;28;20038;-55
2021/12/26 04:53:29;;;;;;;9.88;5.00;;;;;;;;;;5026437;28;20033;-56
2021/12/26 04:55:55;;;;;;;5.35;3.47;;;;;;;;;;5023043;28;20034;-52
2021/12/26 04:58:20;;;;;;;5.90;5.32;;;;;;;;;;5028086;28;20048;-53
2021/12/26 05:00:46;;;;;;;13.60;7.20;;;;;;;;;;5028632;28;20046;-52
2021/12/26 05:03:13;;;;;;;6.15;4.93;;;;;;;;;;5021988;28;20402;-57
2021/12/26 05:05:39;;;;;;;7.47;3.80;;;;;;;;;;5029660;28;20029;-56
2021/12/26 05:08:06;;;;;;;4.78;3.75;;;;;;;;;;5025207;28;20652;-56
2021/12/26 05:10:32;;;;;;;8.65;4.28;;;;;;;;;;5029664;28;20041;-56
2021/12/26 05:13:00;;;;;;;5.75;4.22;;;;;;;;;;5022144;28;20502;-55
2021/12/26 05:15:27;;;;;;;6.50;4.22;;;;;;;;;;5028409;28;20030;-57
2021/12/26 05:17:54;;;;;;;9.10;4.00;;;;;;;;;;5021869;28;20045;-53
2021/12/26 05:20:21;;;;;;;6.68;3.28;;;;;;;;;;5025673;28;20402;-54
2021/12/26 05:22:51;;;;;;;7.43;3.42;;;;;;;;;;5027105;28;20057;-53
2021/12/26 05:25:18;;;;;;;4.22;3.72;;;;;;;;;;5029143;28;20038;-57
2021/12/26 05:27:44;;;;;;;6.47;4.38;;;;;;;;;;5028455;28;20033;-57
2021/12/26 05:30:13;;;;;;;5.05;3.72;;;;;;;;;;5022848;28;20079;-56
2021/12/26 05:32:40;;;;;;;7.20;4.18;;;;;;;;;;5026574;28;20029;-56
2021/12/26 05:35:08;;;;;;;5.60;4.40;;;;;;;;;;5027558;28;20091;-57
2021/12/26 05:37:33;;;;;;;5.15;4.13;;;;;;;;;;5023784;28;20109;-57
2021/12/26 05:40:02;;;;;;;5.57;4.10;;;;;;;;;;5023383;28;20249;-55
2021/12/26 05:42:30;;;;;;;4.93;4.25;;;;;;;;;;5026811;28;20029;-55
2021/12/26 05:44:56;;;;;;;5.20;4.70;;;;;;;;;;5022807;28;20156;-56
2021/12/26 05:47:22;;;;;;;5.03;4.30;;;;;;;;;;5024757;28;20117;-54
2021/12/26 05:49:47;;;;;;;6.25;4.35;;;;;;;;;;5022490;28;20052;-54
2021/12/26 05:52:14;;;;;;;5.72;4.35;;;;;;;;;;5026591;28;20458;-56
2021/12/26 05:54:40;;;;;;;5.00;3.65;;;;;;;;;;5020967;28;20390;-57
2021/12/26 05:57:06;;;;;;;4.30;3.80;;;;;;;;;;5024809;28;20043;-56
2021/12/26 05:59:33;;;;;;;7.65;4.88;;;;;;;;;;5023137;28;20647;-54
2021/12/26 06:01:59;;;;;;;7.00;4.53;;;;;;;;;;5024527;28;20605;-57
2021/12/26 06:04:24;;;;;;;5.25;4.75;;;;;;;;;;5028133;28;20029;-57
2021/12/26 06:06:51;;;;;;;6.80;4.15;;;;;;;;;;5022363;28;20668;-53
2021/12/26 06:09:17;;;;;;;4.25;3.85;;;;;;;;;;5020478;28;20034;-56
2021/12/26 06:11:43;;;;;;;5.88;4.10;;;;;;;;;;5022758;28;20395;-56
2021/12/26 06:14:08;;;;;;;7.68;4.25;;;;;;;;;;5028332;28;20067;-57
2021/12/26 06:16:34;;;;;;;4.30;3.85;;;;;;;;;;5027889;28;20029;-54
2021/12/26 06:19:00;;;;;;;8.18;5.90;;;;;;;;;;5023849;28;20052;-54
2021/12/26 06:21:26;;;;;;;6.95;5.53;;;;;;;;;;5025021;28;20052;-57
2021/12/26 06:23:52;;;;;;;6.65;4.78;;;;;;;;;;5029258;28;20052;-57
2021/12/26 06:26:19;;;;;;;6.43;4.68;;;;;;;;;;5025960;28;20108;-56
2021/12/26 06:28:45;;;;;;;4.95;4.47;;;;;;;;;;5025750;28;20026;-58
2021/12/26 06:31:11;;;;;;;5.63;4.32;;;;;;;;;;5016230;28;20545;-57
2021/12/26 06:33:38;;;;;;;6.63;5.20;;;;;;;;;;5025948;28;20079;-54
2021/12/26 06:36:04;;;;;;;8.60;5.63;;;;;;;;;;5026685;28;20037;-54
2021/12/26 06:38:31;;;;;;;6.82;5.80;;;;;;;;;;5029018;28;20421;-57
2021/12/26 06:40:57;;;;;;;6.75;5.90;;;;;;;;;;5027065;28;20033;-55
2021/12/26 06:43:23;;;;;;;8.23;5.55;;;;;;;;;;5023791;28;20082;-56
2021/12/26 06:45:49;;;;;;;10.63;4.88;;;;;;;;;;5025243;28;20433;-57
2021/12/26 06:48:15;;;;;;;4.97;4.47;;;;;;;;;;5022073;28;20041;-57
2021/12/26 06:50:43;;;;;;;5.13;4.15;;;;;;;;;;5026267;28;20064;-55
2021/12/26 06:53:09;;;;;;;7.30;4.68;;;;;;;;;;5023110;28;20063;-54
2021/12/26 06:55:34;;;;;;;5.43;4.78;;;;;;;;;;5020746;28;20035;-54
2021/12/26 06:58:00;;;;;;;6.03;4.72;;;;;;;;;;5026251;28;20036;-56
2021/12/26 07:00:26;;;;;;;7.93;5.43;;;;;;;;;;5019446;28;20459;-55
2021/12/26 07:02:52;;;;;;;7.90;5.53;;;;;;;;;;5027119;28;20038;-56
2021/12/26 07:05:17;;;;;;;7.90;5.53;;;;;;;;;;5026660;28;20528;-56
2021/12/26 07:07:43;;;;;;;10.23;4.97;;;;;;;;;;5020278;28;20044;-57
2021/12/26 07:10:10;;;;;;;4.28;3.88;;;;;;;;;;5020928;28;20516;-57
2021/12/26 07:12:36;;;;;;;6.47;3.70;;;;;;;;;;5017308;28;20048;-56
2021/12/26 07:15:03;;;;;;;4.15;3.75;;;;;;;;;;5026503;28;20029;-54
2021/12/26 07:17:29;;;;;;;4.40;3.53;;;;;;;;;;5023421;28;20408;-53
2021/12/26 07:19:54;;;;;;;4.78;3.75;;;;;;;;;;5025931;28;20049;-57
2021/12/26 07:22:20;;;;;;;4.43;3.85;;;;;;;;;;5027584;28;20033;-57
2021/12/26 07:24:47;;;;;;;3.85;3.55;;;;;;;;;;5021619;28;20032;-56
2021/12/26 07:27:13;;;;;;;4.65;4.25;;;;;;;;;;5023710;28;20037;-56
2021/12/26 07:29:39;;;;;;;5.88;4.63;;;;;;;;;;5027757;28;20399;-52
2021/12/26 07:32:07;;;;;;;7.60;5.32;;;;;;;;;;5024779;28;20038;-56
2021/12/26 07:34:33;;;;;;;4.20;3.80;;;;;;;;;;5023515;28;20033;-56
2021/12/26 07:36:59;;;;;;;5.53;4.25;;;;;;;;;;5020994;28;20151;-55
2021/12/26 07:39:25;;;;;;;3.92;3.63;;;;;;;;;;5019947;28;20424;-57
2021/12/26 07:41:51;;;;;;;4.70;4.30;;;;;;;;;;5018564;28;20119;-55
2021/12/26 07:44:16;;;;;;;4.03;3.63;;;;;;;;;;5024516;28;20060;-56
2021/12/26 07:46:42;;;;;;;4.35;3.47;;;;;;;;;;5027057;28;20110;-57
2021/12/26 07:49:08;;;;;;;5.00;3.30;;;;;;;;;;5020953;28;20129;-55
2021/12/26 07:51:34;;;;;;;3.85;3.55;;;;;;;;;;5023290;28;20036;-56
2021/12/26 07:54:01;;;;;;;4.93;4.40;;;;;;;;;;5027177;28;20042;-58
2021/12/26 07:56:29;;;;;;;4.32;3.92;;;;;;;;;;5023857;28;20432;-58
2021/12/26 07:58:54;;;;;;;4.50;3.95;;;;;;;;;;5025970;28;20021;-58
2021/12/26 08:01:20;;;;;;;3.65;3.35;;;;;;;;;;5021509;28;20385;-55
2021/12/26 08:03:47;;;;;;;5.43;3.50;;;;;;;;;;5025814;28;20037;-57
2021/12/26 08:06:18;;;;;;;4.53;4.13;;;;;;;;;;5027792;28;20091;-57
2021/12/26 08:08:46;;;;;;;4.07;3.30;;;;;;;;;;5022585;28;20030;-56
2021/12/26 08:11:13;;;;;;;6.75;3.45;;;;;;;;;;5022801;28;20482;-54
2021/12/26 08:13:38;;;;;;;4.15;3.63;;;;;;;;;;5017312;28;20088;-56
2021/12/26 08:16:05;;;;;;;4.80;3.97;;;;;;;;;;5016912;28;20030;-57
2021/12/26 08:18:31;;;;;;;4.07;3.78;;;;;;;;;;5016824;28;20038;-57
2021/12/26 08:20:56;;;;;;;4.15;3.75;;;;;;;;;;5017301;28;20524;-57
2021/12/26 08:23:23;;;;;;;3.40;3.08;;;;;;;;;;5018371;28;20041;-57
2021/12/26 08:25:49;;;;;;;3.15;2.95;;;;;;;;;;5017586;28;20029;-57
2021/12/26 08:28:14;;;;;;;3.10;2.90;;;;;;;;;;5019407;28;20044;-57
2021/12/26 08:30:42;;;;;;;2.90;2.70;;;;;;;;;;5019639;28;20029;-55
2021/12/26 08:33:08;;;;;;;3.38;3.08;;;;;;;;;;5019860;28;20030;-56
2021/12/26 08:35:34;;;;;;;3.08;2.72;;;;;;;;;;5018285;28;20425;-51
2021/12/26 08:38:01;;;;;;;3.60;3.30;;;;;;;;;;5014843;28;20115;-54
2021/12/26 08:40:27;;;;;;;3.25;2.92;;;;;;;;;;5018378;28;20053;-57
2021/12/26 08:42:53;;;;;;;3.80;3.50;;;;;;;;;;5017398;28;20068;-53
2021/12/26 08:45:19;;;;;;;3.78;3.47;;;;;;;;;;5018078;28;20394;-56
2021/12/26 08:47:46;;;;;;;6.90;5.20;;;;;;;;;;5019742;28;20069;-51
2021/12/26 08:50:12;;;;;;;8.35;7.47;;;;;;;;;;5019754;28;20026;-55
2021/12/26 08:52:39;;;;;;;4.97;4.53;;;;;;;;;;5018347;28;20087;-55
2021/12/26 08:55:06;;;;;;;4.45;4.05;;;;;;;;;;5020503;28;20079;-55
2021/12/26 08:57:32;;;;;;;5.70;4.75;;;;;;;;;;5017233;28;20033;-56
2021/12/26 08:59:59;;;;;;;6.20;4.80;;;;;;;;;;5017466;28;20041;-54
2021/12/26 09:02:25;;;;;;;5.65;4.65;;;;;;;;;;5019878;28;20033;-56
2021/12/26 09:04:51;;;;;;;5.47;4.97;;;;;;;;;;5023647;28;20094;-53
2021/12/26 09:07:17;;;;;;;5.38;4.90;;;;;;;;;;5018427;28;20116;-51
2021/12/26 09:09:44;;;;;;;6.85;5.22;;;;;;;;;;5019854;28;20686;-55
2021/12/26 09:12:10;;;;;;;6.55;5.25;;;;;;;;;;5019379;28;20498;-53
2021/12/26 09:14:36;;;;;;;5.68;5.20;;;;;;;;;;5016001;28;20037;-54
2021/12/26 09:17:02;;;;;;;12.70;8.45;;;;;;;;;;5020516;28;20033;-53
2021/12/26 09:19:28;;;;;;;6.55;5.90;;;;;;;;;;5020525;28;20045;-51
2021/12/26 09:21:56;;;;;;;6.28;5.18;;;;;;;;;;5018014;28;20026;-56
2021/12/26 09:24:21;;;;;;;7.03;6.03;;;;;;;;;;5020900;28;20554;-56
2021/12/26 09:26:47;;;;;;;12.80;7.65;;;;;;;;;;5023148;28;20041;-52
2021/12/26 09:29:13;;;;;;;11.25;8.43;;;;;;;;;;5016026;28;20033;-51
2021/12/26 09:31:38;;;;;;;8.77;7.70;;;;;;;;;;5020701;28;20087;-54
2021/12/26 09:34:04;;;;;;;9.15;7.40;;;;;;;;;;5021889;28;20026;-51
2021/12/26 09:36:32;;;;;;;8.85;7.45;;;;;;;;;;5019272;28;20037;-56
2021/12/26 09:38:58;;;;;;;18.15;8.18;;;;;;;;;;5019995;28;20037;-51
2021/12/26 09:41:24;;;;;;;11.05;7.80;;;;;;;;;;5022363;28;20029;-52
2021/12/26 09:43:50;;;;;;;10.77;9.68;;;;;;;;;;5026494;28;20382;-53
2021/12/26 09:46:16;;;;;;;11.73;9.63;;;;;;;;;;5023157;28;20075;-54
2021/12/26 09:48:41;;;;;;;10.82;9.65;;;;;;;;;;5021627;28;20033;-48
2021/12/26 09:51:07;;;;;;;13.80;9.98;;;;;;;;;;5028988;28;20046;-58
2021/12/26 09:53:38;;;;;;;19.05;13.90;;;;;;;;;;5030960;28;20037;-53
2021/12/26 09:56:06;;;;;;;15.65;12.90;;;;;;;;;;5029435;28;20052;-51
2021/12/26 09:58:32;;;;;;;21.27;11.93;;;;;;;;;;5026949;28;20037;-54
2021/12/26 10:00:58;;;;;;;14.43;10.73;;;;;;;;;;5035979;28;20059;-52
2021/12/26 10:03:35;;;;;;;16.83;12.63;;;;;;;;;;5030702;28;20482;-54
2021/12/26 10:06:03;;;;;;;15.20;12.57;;;;;;;;;;5016631;28;20088;-53
2021/12/26 10:08:31;;;;;;;13.52;11.90;;;;;;;;;;5029910;28;20499;-55
2021/12/26 10:11:12;;;;;;;15.90;12.38;;;;;;;;;;5022359;28;20022;-52
2021/12/26 10:13:41;;;;;;;19.15;14.35;;;;;;;;;;5027444;28;20041;-53
2021/12/26 10:16:07;;;;;;;16.88;13.27;;;;;;;;;;5026598;28;20047;-51
2021/12/26 10:18:39;;;;;;;15.75;11.85;;;;;;;;;;5031341;28;20041;-53
2021/12/26 10:21:32;;;;;;;14.70;11.57;;;;;;;;;;5030192;28;20034;-52
2021/12/26 10:24:19;;;;;;;16.98;12.98;;;;;;;;;;5030662;28;20037;-53
2021/12/26 10:26:57;;;;;;;21.90;13.18;;;;;;;;;;5034839;28;20029;-54
2021/12/26 10:29:35;;;;;;;19.83;13.20;;;;;;;;;;5033216;28;20034;-51
2021/12/26 10:32:03;;;;;;;22.73;14.35;;;;;;;;;;5034932;28;20037;-56
2021/12/26 10:34:33;;;;;;;15.18;13.48;;;;;;;;;;5032205;28;20025;-53
2021/12/26 10:37:01;;;;;;;23.63;14.25;;;;;;;;;;5028776;28;20030;-57
2021/12/26 10:39:31;;;;;;;20.05;14.93;;;;;;;;;;5031613;28;20040;-54
2021/12/26 10:42:04;;;;;;;17.17;13.98;;;;;;;;;;5031729;28;20041;-53
2021/12/26 10:44:43;;;;;;;20.85;14.45;;;;;;;;;;5023111;28;20033;-54
2021/12/26 10:47:18;;;;;;;18.27;14.23;;;;;;;;;;5033443;28;20072;-51
2021/12/26 10:49:53;;;;;;;21.20;13.55;;;;;;;;;;5029893;28;20068;-52
2021/12/26 10:52:23;;;;;;;22.77;15.32;;;;;;;;;;5022380;28;20063;-52
2021/12/26 10:54:52;;;;;;;21.60;16.67;;;;;;;;;;5026428;28;20030;-55
2021/12/26 10:57:37;;;;;;;24.77;16.88;;;;;;;;;;5024065;28;22609;-53
2021/12/26 11:00:22;;;;;;;22.80;17.02;;;;;;;;;;5020485;28;20038;-53
2021/12/26 11:03:12;;;;;;;22.35;18.10;;;;;;;;;;5024155;28;20038;-49
2021/12/26 11:05:44;;;;;;;32.20;17.98;;;;;;;;;;5027611;28;20030;-52
2021/12/26 11:08:33;;;;;;;22.23;16.57;;;;;;;;;;5028992;28;20041;-56
2021/12/26 11:11:10;;;;;;;20.55;17.20;;;;;;;;;;5033012;28;20286;-51
2021/12/26 11:13:36;;;;;;;21.75;16.92;;;;;;;;;;5028603;28;20463;-57
2021/12/26 11:16:06;;;;;;;24.13;18.27;;;;;;;;;;5024163;28;20056;-54
2021/12/26 11:18:33;;;;;;;29.10;20.65;;;;;;;;;;5028219;28;20056;-50
2021/12/26 11:21:02;;;;;;;24.30;18.98;;;;;;;;;;5031275;28;20497;-57
2021/12/26 11:23:39;;;;;;;23.35;17.00;;;;;;;;;;5028489;28;20429;-54
2021/12/26 11:26:08;;;;;;;21.15;16.38;;;;;;;;;;5026398;28;20033;-53
2021/12/26 11:28:40;;;;;;;24.33;17.70;;;;;;;;;;5029520;28;20038;-53
2021/12/26 11:31:07;;;;;;;;;;;;;;;;;;5022661;28;20035;-54
2021/12/26 11:33:34;;;;;;;20.23;15.55;;;;;;;;;;5029914;28;19924;-57
2021/12/26 11:36:01;;;;;;;18.98;14.15;;;;;;;;;;5026044;28;20383;-49
2021/12/26 11:38:28;;;;;;;20.85;15.35;;;;;;;;;;5019542;28;20021;-57
2021/12/26 11:41:00;;;;;;;24.40;16.52;;;;;;;;;;5024982;28;20497;-53
2021/12/26 11:43:54;;;;;;;18.80;14.35;;;;;;;;;;5026779;28;20061;-54
2021/12/26 11:46:39;;;;;;;15.38;12.60;;;;;;;;;;5033796;28;20025;-57
2021/12/26 11:49:29;;;;;;;20.10;14.35;;;;;;;;;;5023790;28;20029;-55
2021/12/26 11:52:15;;;;;;;17.58;12.38;;;;;;;;;;5019097;28;20029;-53
2021/12/26 11:54:41;;;;;;;15.93;12.25;;;;;;;;;;5025527;28;20037;-55
2021/12/26 11:57:52;;;;;;;14.85;11.75;;;;;;;;;;5025826;28;20025;-55
2021/12/26 12:00:24;;;;;;;14.18;11.82;;;;;;;;;;5022196;28;20739;-58
2021/12/26 12:02:53;;;;;;;16.70;10.63;;;;;;;;;;5025897;28;20125;-56
2021/12/26 12:05:19;;;;;;;15.20;11.32;;;;;;;;;;5032298;28;20029;-54
2021/12/26 12:07:46;;;;;;;17.73;10.55;;;;;;;;;;5025446;28;20036;-54
2021/12/26 12:10:34;;;;;;;13.02;9.25;;;;;;;;;;5023933;28;20411;-52
2021/12/26 12:13:01;;;;;;;15.90;9.35;;;;;;;;;;5030985;28;20037;-56
2021/12/26 12:15:44;;;;;;;15.05;9.43;;;;;;;;;;5026778;28;20147;-57
2021/12/26 12:18:16;;;;;;;14.25;9.65;;;;;;;;;;5024677;28;20182;-52
2021/12/26 12:20:42;;;;;;;12.23;8.75;;;;;;;;;;5028358;28;20037;-57
2021/12/26 12:23:13;;;;;;;9.60;8.13;;;;;;;;;;5023482;28;20095;-53
2021/12/26 12:25:48;;;;;;;9.20;8.10;;;;;;;;;;5032697;28;20041;-52
2021/12/26 12:28:23;;;;;;;12.25;8.48;;;;;;;;;;5024029;28;20024;-51
2021/12/26 12:31:17;;;;;;;12.80;8.45;;;;;;;;;;5022881;28;20498;-57
2021/12/26 12:33:47;;;;;;;9.77;7.90;;;;;;;;;;5019666;28;20095;-55
2021/12/26 12:36:27;;;;;;;9.88;7.65;;;;;;;;;;5021684;28;20029;-56
2021/12/26 12:38:54;;;;;;;11.23;7.32;;;;;;;;;;5021984;28;20189;-55
2021/12/26 12:41:28;;;;;;;9.02;6.85;;;;;;;;;;5023310;28;20034;-53
2021/12/26 12:44:23;;;;;;;6.53;4.95;;;;;;;;;;5031459;28;20103;-56
2021/12/26 12:46:58;;;;;;;6.40;5.45;;;;;;;;;;5031554;28;20036;-49
2021/12/26 12:49:52;;;;;;;9.07;6.20;;;;;;;;;;5024887;28;20025;-52
2021/12/26 12:52:43;;;;;;;12.27;7.72;;;;;;;;;;5019585;28;20048;-57
2021/12/26 12:55:41;;;;;;;11.90;8.68;;;;;;;;;;5028186;28;20621;-56
2021/12/26 12:58:21;;;;;;;10.70;8.73;;;;;;;;;;5019745;28;20359;-56
2021/12/26 13:00:47;;;;;;;15.88;9.93;;;;;;;;;;5026271;28;20087;-54
2021/12/26 13:03:16;;;;;;;10.73;8.13;;;;;;;;;;5023812;28;20427;-57
2021/12/26 13:05:43;;;;;;;12.43;7.95;;;;;;;;;;5019432;28;20033;-52
2021/12/26 13:08:13;;;;;;;11.40;7.20;;;;;;;;;;5033081;28;20033;-53
2021/12/26 13:10:39;;;;;;;9.13;7.57;;;;;;;;;;5030994;28;20029;-56
2021/12/26 13:13:13;;;;;;;8.27;7.32;;;;;;;;;;5056092;28;20099;-52
2021/12/26 13:15:56;;;;;;;10.27;6.78;;;;;;;;;;5024876;28;20036;-55
2021/12/26 13:18:25;;;;;;;8.20;6.70;;;;;;;;;;5023820;28;20434;-57
2021/12/26 13:20:53;;;;;;;8.82;7.15;;;;;;;;;;5035846;28;20502;-56
2021/12/26 13:23:20;;;;;;;13.07;7.20;;;;;;;;;;5032158;28;20029;-56
2021/12/26 13:25:48;;;;;;;10.88;7.20;;;;;;;;;;5050708;28;20530;-57
2021/12/26 13:28:14;;;;;;;8.00;6.15;;;;;;;;;;5026243;28;20033;-57
2021/12/26 13:30:42;;;;;;;7.03;6.32;;;;;;;;;;5030014;28;20039;-57
2021/12/26 13:33:26;;;;;;;8.45;6.78;;;;;;;;;;5028777;28;20038;-57
2021/12/26 13:35:52;;;;;;;6.68;5.60;;;;;;;;;;5033452;28;20029;-55
2021/12/26 13:38:20;;;;;;;4.75;4.22;;;;;;;;;;5030417;28;20033;-52
2021/12/26 13:40:49;;;;;;;4.57;4.18;;;;;;;;;;5033743;28;20037;-57
2021/12/26 13:43:38;;;;;;;4.60;4.18;;;;;;;;;;5028025;28;20025;-55
2021/12/26 13:46:06;;;;;;;6.18;4.20;;;;;;;;;;5033948;28;20505;-56
2021/12/26 13:48:44;;;;;;;3.88;3.58;;;;;;;;;;5026993;28;20056;-54
2021/12/26 13:51:19;;;;;;;6.10;3.88;;;;;;;;;;5028867;28;20041;-51
2021/12/26 13:53:51;;;;;;;6.28;4.00;;;;;;;;;;5032215;28;20439;-56
2021/12/26 13:56:17;;;;;;;6.20;3.67;;;;;;;;;;5031959;28;20382;-52
2021/12/26 13:58:43;;;;;;;5.68;4.05;;;;;;;;;;5030982;28;20023;-53
2021/12/26 14:01:10;;;;;;;4.43;4.00;;;;;;;;;;5026115;28;21189;-56
2021/12/26 14:03:36;;;;;;;5.28;3.80;;;;;;;;;;5029040;28;20483;-49
2021/12/26 14:06:02;;;;;;;4.07;3.70;;;;;;;;;;5026838;28;20042;-50
2021/12/26 14:08:30;;;;;;;4.05;3.60;;;;;;;;;;5024360;28;20056;-57
2021/12/26 14:11:08;;;;;;;4.13;3.75;;;;;;;;;;5024367;28;20537;-55
2021/12/26 14:13:50;;;;;;;3.67;3.38;;;;;;;;;;5027777;28;20033;-55
2021/12/26 14:16:29;;;;;;;5.85;3.45;;;;;;;;;;5025029;28;20030;-53
2021/12/26 14:19:07;;;;;;;7.07;3.53;;;;;;;;;;5023293;28;20056;-56
2021/12/26 14:21:43;;;;;;;6.20;4.03;;;;;;;;;;5025102;28;20667;-56
2021/12/26 14:24:09;;;;;;;5.18;3.90;;;;;;;;;;5035363;28;20500;-54
2021/12/26 14:26:39;;;;;;;4.20;3.63;;;;;;;;;;5033747;28;20029;-58
2021/12/26 14:29:14;;;;;;;9.25;5.00;;;;;;;;;;5022460;28;20471;-55
2021/12/26 14:31:48;;;;;;;8.70;6.43;;;;;;;;;;5029303;28;20037;-57
2021/12/26 14:34:18;;;;;;;9.02;6.82;;;;;;;;;;5023909;28;20072;-53
2021/12/26 14:36:54;;;;;;;16.15;8.30;;;;;;;;;;5025734;28;20034;-56
2021/12/26 14:39:42;;;;;;;14.10;9.80;;;;;;;;;;5022529;28;20034;-56
2021/12/26 14:42:15;;;;;;;15.73;10.35;;;;;;;;;;5030628;28;20675;-57
2021/12/26 14:44:47;;;;;;;11.93;9.20;;;;;;;;;;5026629;28;20037;-57
2021/12/26 14:47:19;;;;;;;10.82;7.70;;;;;;;;;;5023465;28;20566;-57
2021/12/26 14:49:50;;;;;;;9.02;7.38;;;;;;;;;;5027726;28;20402;-54
2021/12/26 14:52:19;;;;;;;9.77;7.72;;;;;;;;;;5022061;28;20033;-57
2021/12/26 14:54:59;;;;;;;9.30;7.10;;;;;;;;;;5017240;28;20049;-56